Time;durP1;ratioP1;P1;durP2;ratioP2;P2;SDS_P1;SDS_P2;PMS_P1;PMS_P2;Temp;Humidity;BMP_temperature;BMP_pressure;BME280_temperature;BME280_humidity;BME280_pressure;Samples;Min_cycle;Max_cycle;Signal;HPM_P1;HPM_P2
2024/03/01 00:01:36;;;;;;;28.45;15.00;;;;;;;4.09;100.00;100537.38;4973465;28;20770;-73
2024/03/01 00:04:01;;;;;;;25.52;14.43;;;;;;;4.08;100.00;100538.44;4996710;28;20026;-75
2024/03/01 00:06:27;;;;;;;28.33;15.00;;;;;;;4.02;100.00;100547.28;4974479;28;20046;-73
2024/03/01 00:08:52;;;;;;;25.75;14.27;;;;;;;3.98;100.00;100553.28;4978827;28;20043;-76
2024/03/01 00:11:18;;;;;;;26.00;14.23;;;;;;;3.94;100.00;100545.00;4980658;28;20038;-77
2024/03/01 00:13:44;;;;;;;26.58;14.82;;;;;;;3.88;100.00;100539.81;4990685;28;20043;-72
2024/03/01 00:16:10;;;;;;;24.33;13.50;;;;;;;3.87;100.00;100541.66;4978181;28;20837;-75
2024/03/01 00:18:35;;;;;;;29.50;15.77;;;;;;;3.86;100.00;100542.66;4978509;28;20038;-73
2024/03/01 00:21:02;;;;;;;23.55;13.00;;;;;;;3.82;100.00;100530.94;4977444;28;20042;-74
2024/03/01 00:23:28;;;;;;;23.25;14.02;;;;;;;3.78;100.00;100535.06;4960668;28;20041;-73
2024/03/01 00:25:55;;;;;;;27.90;14.38;;;;;;;3.74;100.00;100529.44;4965036;28;20665;-74
2024/03/01 00:28:20;;;;;;;;;;;;;;;3.73;100.00;100532.31;4979103;28;20038;-74
2024/03/01 00:30:46;;;;;;;31.45;15.20;;;;;;;3.72;100.00;100530.69;4965663;28;19968;-73
2024/03/01 00:33:13;;;;;;;26.42;14.07;;;;;;;3.68;100.00;100529.53;4979032;28;20038;-74
2024/03/01 00:35:38;;;;;;;27.48;14.75;;;;;;;3.67;100.00;100527.94;4962182;28;20037;-73
2024/03/01 00:38:04;;;;;;;30.05;15.27;;;;;;;3.65;100.00;100527.34;4976542;28;20035;-74
2024/03/01 00:40:30;;;;;;;28.85;15.10;;;;;;;3.63;100.00;100526.78;4979466;28;20562;-74
2024/03/01 00:42:56;;;;;;;29.25;15.25;;;;;;;3.60;100.00;100528.03;4976310;28;20026;-73
2024/03/01 00:45:21;;;;;;;26.83;14.68;;;;;;;3.59;100.00;100530.91;4976082;28;20495;-72
2024/03/01 00:47:49;;;;;;;30.35;15.85;;;;;;;3.58;100.00;100534.59;4979268;28;20042;-72
2024/03/01 00:50:16;;;;;;;29.38;16.00;;;;;;;3.54;100.00;100529.75;4979567;28;20057;-74
2024/03/01 00:52:43;;;;;;;28.05;15.38;;;;;;;3.52;100.00;100531.84;4987753;28;20069;-74
2024/03/01 00:55:09;;;;;;;29.00;15.23;;;;;;;3.51;100.00;100530.19;4973314;28;20040;-73
2024/03/01 00:57:34;;;;;;;27.92;15.02;;;;;;;3.50;100.00;100528.59;4979443;28;20046;-73
2024/03/01 01:00:00;;;;;;;28.95;15.27;;;;;;;3.47;100.00;100523.75;4978405;28;20225;-74
2024/03/01 01:02:25;;;;;;;28.83;15.18;;;;;;;3.45;100.00;100525.81;4994702;28;20377;-72
2024/03/01 01:04:51;;;;;;;28.30;15.27;;;;;;;3.44;100.00;100524.19;4974211;28;20110;-73
2024/03/01 01:07:17;;;;;;;29.88;15.40;;;;;;;3.43;100.00;100512.00;4992306;28;20038;-73
2024/03/01 01:09:42;;;;;;;31.48;16.58;;;;;;;3.44;100.00;100524.19;4978455;28;20045;-74
2024/03/01 01:12:08;;;;;;;31.13;15.70;;;;;;;3.42;100.00;100512.25;4976324;28;20538;-74
2024/03/01 01:14:34;;;;;;;30.88;16.48;;;;;;;3.40;100.00;100509.81;4979357;28;20048;-73
2024/03/01 01:17:01;;;;;;;29.27;15.57;;;;;;;3.39;100.00;100512.72;4997454;28;20054;-76
2024/03/01 01:19:26;;;;;;;31.02;16.48;;;;;;;3.34;100.00;100508.09;4965159;28;20038;-73
2024/03/01 01:21:52;;;;;;;31.98;15.90;;;;;;;3.36;100.00;100498.06;4975762;28;20496;-72
2024/03/01 01:24:18;;;;;;;29.92;15.65;;;;;;;3.33;100.00;100495.88;4982112;28;20135;-72
2024/03/01 01:26:44;;;;;;;33.33;16.63;;;;;;;3.28;100.00;100490.47;4981415;28;20412;-73
2024/03/01 01:29:09;;;;;;;29.15;16.25;;;;;;;3.25;100.00;100493.56;4977062;28;20066;-73
2024/03/01 01:31:35;;;;;;;32.65;16.75;;;;;;;3.24;100.00;100486.66;4983648;28;20034;-74
2024/03/01 01:34:00;;;;;;;32.67;17.08;;;;;;;3.23;100.00;100485.03;4964601;28;20038;-73
2024/03/01 01:36:26;;;;;;;32.22;16.63;;;;;;;3.18;100.00;100483.06;4980208;28;20126;-74
2024/03/01 01:38:52;;;;;;;30.15;16.40;;;;;;;3.15;100.00;100477.44;4980057;28;20183;-73
2024/03/01 01:41:17;;;;;;;32.45;16.98;;;;;;;3.11;100.00;100482.34;4980788;28;20153;-72
2024/03/01 01:43:44;;;;;;;34.35;17.50;;;;;;;3.07;100.00;100480.41;4997616;28;20384;-72
2024/03/01 01:46:12;;;;;;;32.45;16.02;;;;;;;3.04;100.00;100472.91;4967587;28;20033;-72
2024/03/01 01:48:38;;;;;;;34.17;17.30;;;;;;;3.03;100.00;100473.94;4979310;28;20185;-74
2024/03/01 01:51:04;;;;;;;29.70;15.45;;;;;;;3.01;100.00;100469.69;4948011;28;20044;-74
2024/03/01 01:53:31;;;;;;;33.10;17.13;;;;;;;2.99;100.00;100474.41;4997938;28;20046;-73
2024/03/01 01:55:59;;;;;;;34.17;17.33;;;;;;;2.94;100.00;100468.97;4977270;28;20084;-74
2024/03/01 01:58:25;;;;;;;33.00;17.80;;;;;;;2.93;100.00;100467.38;4999888;28;20049;-73
2024/03/01 02:00:51;;;;;;;31.48;16.05;;;;;;;2.91;100.00;100465.97;4979519;28;20038;-73
2024/03/01 02:03:17;;;;;;;30.65;16.05;;;;;;;2.88;100.00;100467.25;5009960;28;20045;-73
2024/03/01 02:05:43;;;;;;;30.80;16.13;;;;;;;2.89;100.00;100452.97;4965565;28;20037;-72
2024/03/01 02:08:09;;;;;;;30.77;16.30;;;;;;;2.89;100.00;100458.25;4979204;28;20157;-72
2024/03/01 02:10:36;;;;;;;31.13;16.60;;;;;;;2.83;100.00;100453.88;4980408;28;20033;-73
2024/03/01 02:13:02;;;;;;;32.80;16.80;;;;;;;2.82;100.00;100446.16;4991798;28;20027;-74
2024/03/01 02:15:29;;;;;;;32.50;16.13;;;;;;;2.78;100.00;100445.84;4973660;28;20042;-71
2024/03/01 02:17:56;;;;;;;34.33;17.60;;;;;;;2.77;100.00;100438.09;4969712;28;20830;-73
2024/03/01 02:20:25;;;;;;;31.55;16.52;;;;;;;2.74;100.00;100440.16;4981535;28;20038;-73
2024/03/01 02:22:59;;;;;;;34.53;17.67;;;;;;;2.73;100.00;100437.75;4977901;28;20061;-72
2024/03/01 02:25:25;;;;;;;31.70;16.88;;;;;;;2.71;100.00;100423.97;4994572;28;20081;-73
2024/03/01 02:27:51;;;;;;;39.75;18.08;;;;;;;2.68;100.00;100424.41;5006052;28;20049;-72
2024/03/01 02:30:17;;;;;;;33.95;17.17;;;;;;;2.66;100.00;100422.00;4980130;28;20069;-74
2024/03/01 02:32:42;;;;;;;34.78;18.33;;;;;;;2.64;100.00;100412.66;4963554;28;20038;-73
2024/03/01 02:35:08;;;;;;;36.17;17.67;;;;;;;2.64;100.00;100417.94;4977596;28;20137;-72
2024/03/01 02:37:34;;;;;;;36.00;17.50;;;;;;;2.62;100.00;100414.72;4965270;28;20046;-73
2024/03/01 02:40:00;;;;;;;31.85;16.92;;;;;;;2.59;100.00;100410.69;4974806;28;20069;-73
2024/03/01 02:42:26;;;;;;;33.53;17.35;;;;;;;2.59;100.00;100421.28;4987771;28;20101;-73
2024/03/01 02:44:52;;;;;;;31.02;16.83;;;;;;;2.57;100.00;100407.44;4989482;28;20034;-73
2024/03/01 02:47:18;;;;;;;31.40;16.52;;;;;;;2.57;100.00;100411.94;4981373;28;20040;-74
2024/03/01 02:49:43;;;;;;;33.75;17.15;;;;;;;2.54;100.00;100412.41;4961450;28;20035;-73
2024/03/01 02:52:09;;;;;;;35.97;17.60;;;;;;;2.55;100.00;100400.78;4978302;28;20112;-74
2024/03/01 02:54:35;;;;;;;34.97;17.13;;;;;;;2.52;100.00;100403.91;4993775;28;20030;-72
2024/03/01 02:57:00;;;;;;;33.33;15.88;;;;;;;2.51;100.00;100399.63;4963620;28;20177;-72
2024/03/01 02:59:26;;;;;;;34.78;17.30;;;;;;;2.52;100.00;100394.13;4966781;28;20081;-73
2024/03/01 03:01:52;;;;;;;35.55;18.38;;;;;;;2.53;100.00;100394.94;4961332;28;20057;-75
2024/03/01 03:04:18;;;;;;;34.30;16.83;;;;;;;2.51;100.00;100394.31;4982075;28;20070;-72
2024/03/01 03:06:43;;;;;;;36.67;18.75;;;;;;;2.50;100.00;100392.72;4979730;28;20038;-72
2024/03/01 03:09:09;;;;;;;32.63;16.40;;;;;;;2.47;100.00;100394.78;4981242;28;20038;-73
2024/03/01 03:11:38;;;;;;;32.72;16.30;;;;;;;2.45;100.00;100394.22;4980218;28;20432;-73
2024/03/01 03:14:04;;;;;;;34.83;16.98;;;;;;;2.45;100.00;100391.56;4993516;28;20278;-72
2024/03/01 03:16:30;;;;;;;34.80;17.63;;;;;;;2.44;100.00;100391.81;4978989;28;20049;-75
2024/03/01 03:18:55;;;;;;;33.00;17.92;;;;;;;2.42;100.00;100388.56;4977410;28;20107;-72
2024/03/01 03:21:21;;;;;;;33.05;17.05;;;;;;;2.38;100.00;100384.78;4998100;28;20109;-72
2024/03/01 03:23:47;;;;;;;36.95;18.10;;;;;;;2.36;100.00;100384.16;5009296;28;20046;-73
2024/03/01 03:26:13;;;;;;;40.42;18.00;;;;;;;2.32;100.00;100383.81;4995057;28;20556;-73
2024/03/01 03:28:38;;;;;;;36.85;17.55;;;;;;;2.32;100.00;100393.59;4980512;28;20080;-73
2024/03/01 03:31:04;;;;;;;35.47;17.13;;;;;;;2.32;100.00;100399.69;4958079;28;20078;-72
2024/03/01 03:33:30;;;;;;;37.70;18.40;;;;;;;2.29;100.00;100394.81;4964769;28;20042;-73
2024/03/01 03:35:56;;;;;;;33.60;17.92;;;;;;;2.29;100.00;100386.91;4989490;28;20038;-75
2024/03/01 03:38:22;;;;;;;32.65;16.90;;;;;;;2.28;100.00;100398.50;4979945;28;20957;-73
2024/03/01 03:40:47;;;;;;;34.95;17.33;;;;;;;2.25;100.00;100393.69;4977657;28;20144;-72
2024/03/01 03:43:13;;;;;;;33.80;16.98;;;;;;;2.23;100.00;100393.06;4978738;28;20039;-73
2024/03/01 03:45:40;;;;;;;33.92;17.67;;;;;;;2.19;100.00;100400.66;4961398;28;20038;-72
2024/03/01 03:48:05;;;;;;;;;;;;;;;2.19;100.00;100399.84;4982053;28;20030;-72
2024/03/01 03:50:31;;;;;;;38.45;17.88;;;;;;;2.18;100.00;100392.94;4975594;28;19925;-72
2024/03/01 03:52:56;;;;;;;36.67;17.83;;;;;;;2.17;100.00;100396.63;5007176;28;20031;-73
2024/03/01 03:55:22;;;;;;;37.80;17.25;;;;;;;2.16;100.00;100400.28;4994476;28;20116;-73
2024/03/01 03:57:47;;;;;;;33.58;17.17;;;;;;;2.12;100.00;100396.47;4960663;28;20739;-73
2024/03/01 04:00:16;;;;;;;36.47;17.75;;;;;;;2.11;100.00;100402.81;5008314;28;20038;-73
2024/03/01 04:02:43;;;;;;;38.30;18.13;;;;;;;2.10;100.00;100395.88;4980856;28;20034;-72
2024/03/01 04:05:09;;;;;;;33.45;16.85;;;;;;;2.10;100.00;100404.63;4978882;28;20038;-72
2024/03/01 04:07:35;;;;;;;34.80;17.10;;;;;;;2.06;100.00;100392.88;4963575;28;20455;-73
2024/03/01 04:10:05;;;;;;;35.03;17.08;;;;;;;2.06;100.00;100410.56;5014526;28;20038;-72
2024/03/01 04:12:31;;;;;;;34.90;17.10;;;;;;;2.05;100.00;100406.31;4980011;28;20029;-73
2024/03/01 04:14:56;;;;;;;39.15;19.33;;;;;;;2.03;100.00;100401.25;4975491;28;20116;-73
2024/03/01 04:17:24;;;;;;;35.80;17.27;;;;;;;1.99;100.00;100394.81;4983350;28;20061;-72
2024/03/01 04:19:49;;;;;;;33.80;17.60;;;;;;;2.01;100.00;100402.50;4967940;28;20100;-72
2024/03/01 04:22:15;;;;;;;35.13;17.65;;;;;;;1.99;100.00;100394.00;4980822;28;20488;-72
2024/03/01 04:24:43;;;;;;;36.38;17.60;;;;;;;1.95;100.00;100393.63;4980451;28;20124;-72
2024/03/01 04:27:09;;;;;;;34.50;17.10;;;;;;;1.95;100.00;100383.06;4977450;28;20041;-72
2024/03/01 04:29:35;;;;;;;35.00;17.58;;;;;;;1.94;100.00;100380.63;4979091;28;20597;-72
2024/03/01 04:32:01;;;;;;;36.97;17.92;;;;;;;1.93;100.00;100379.84;4974665;28;20194;-73
2024/03/01 04:34:27;;;;;;;40.97;18.55;;;;;;;1.88;100.00;100382.31;4995869;28;20034;-73
2024/03/01 04:36:57;;;;;;;34.75;17.38;;;;;;;1.85;100.00;100383.59;4995402;28;20495;-72
2024/03/01 04:39:42;;;;;;;35.17;17.75;;;;;;;1.80;100.00;100375.50;4978881;28;20062;-72
2024/03/01 04:42:08;;;;;;;37.55;17.13;;;;;;;1.80;100.00;100386.06;4994714;28;20027;-72
2024/03/01 04:44:34;;;;;;;35.80;17.50;;;;;;;1.80;100.00;100385.28;4995823;28;20042;-72
2024/03/01 04:47:00;;;;;;;38.00;17.92;;;;;;;1.80;100.00;100395.84;5011915;28;20065;-71
2024/03/01 04:49:26;;;;;;;34.22;16.95;;;;;;;1.76;100.00;100379.63;4988640;28;20085;-72
2024/03/01 04:51:52;;;;;;;39.20;17.98;;;;;;;1.77;100.00;100389.16;4999077;28;20031;-72
2024/03/01 04:54:17;;;;;;;37.25;17.67;;;;;;;1.77;100.00;100391.00;4985693;28;20038;-73
2024/03/01 04:56:44;;;;;;;41.22;17.77;;;;;;;1.79;100.00;100383.66;4970541;28;20049;-73
2024/03/01 04:59:09;;;;;;;;;;;;;;;1.79;100.00;100384.47;4978773;28;20040;-73
2024/03/01 05:01:40;;;;;;;36.67;17.13;;;;;;;1.78;100.00;100377.56;4984643;28;19918;-74
2024/03/01 05:04:08;;;;;;;39.88;18.50;;;;;;;1.79;100.00;100384.47;4996241;28;20030;-73
2024/03/01 05:06:36;;;;;;;38.17;17.92;;;;;;;1.78;100.00;100377.56;4966962;28;20041;-73
2024/03/01 05:09:03;;;;;;;35.47;17.48;;;;;;;1.76;100.00;100384.91;4998546;28;20042;-73
2024/03/01 05:11:33;;;;;;;36.80;17.80;;;;;;;1.75;100.00;100396.47;4979145;28;20511;-73
2024/03/01 05:14:00;;;;;;;36.67;17.55;;;;;;;1.75;100.00;100396.47;4984210;28;20038;-74
2024/03/01 05:16:26;;;;;;;34.85;16.90;;;;;;;1.76;100.00;100395.47;4982819;28;20210;-73
2024/03/01 05:18:51;;;;;;;40.90;18.35;;;;;;;1.76;100.00;100394.66;4963266;28;20145;-73
2024/03/01 05:21:17;;;;;;;39.88;18.15;;;;;;;1.74;100.00;100384.31;5017773;28;20065;-73
2024/03/01 05:23:43;;;;;;;39.40;18.40;;;;;;;1.71;100.00;100395.31;4981708;28;20026;-73
2024/03/01 05:26:09;;;;;;;37.97;18.65;;;;;;;1.73;100.00;100390.63;4984531;28;21118;-73
2024/03/01 05:28:35;;;;;;;36.90;17.52;;;;;;;1.73;100.00;100390.63;4985488;28;20039;-73
2024/03/01 05:31:01;;;;;;;36.72;17.77;;;;;;;1.71;100.00;100387.41;5010544;28;20046;-73
2024/03/01 05:33:28;;;;;;;40.80;18.67;;;;;;;1.72;100.00;100390.84;4985301;28;20080;-73
2024/03/01 05:35:53;;;;;;;37.60;17.67;;;;;;;1.70;100.00;100391.06;4994374;28;20061;-73
2024/03/01 05:38:19;;;;;;;37.67;17.33;;;;;;;1.69;100.00;100386.78;4982681;28;20121;-72
2024/03/01 05:40:46;;;;;;;37.17;17.90;;;;;;;1.68;100.00;100382.56;4983871;28;20045;-73
2024/03/01 05:43:12;;;;;;;41.25;17.60;;;;;;;1.67;100.00;100375.66;4996446;28;20113;-73
2024/03/01 05:45:39;;;;;;;39.08;18.65;;;;;;;1.67;100.00;100378.31;4982369;28;20041;-72
2024/03/01 05:48:10;;;;;;;40.25;18.02;;;;;;;1.68;100.00;100387.81;4983108;28;20034;-73
2024/03/01 05:50:37;;;;;;;36.83;17.17;;;;;;;1.67;100.00;100388.84;4995175;28;20163;-73
2024/03/01 05:53:02;;;;;;;;;;;;;;;1.66;100.00;100384.59;4953062;28;20130;-73
2024/03/01 05:55:28;;;;;;;36.75;16.98;;;;;;;1.63;100.00;100385.06;4985779;28;19996;-73
2024/03/01 05:57:53;;;;;;;37.97;17.33;;;;;;;1.62;100.00;100384.22;4998933;28;20038;-73
2024/03/01 06:00:25;;;;;;;38.20;17.58;;;;;;;1.62;100.00;100383.41;4985143;28;20060;-73
2024/03/01 06:02:52;;;;;;;40.10;17.90;;;;;;;1.60;100.00;100374.94;4976857;28;20042;-73
2024/03/01 06:05:19;;;;;;;37.83;17.33;;;;;;;1.59;100.00;100374.13;4997710;28;20038;-73
2024/03/01 06:07:45;;;;;;;;;;;;;;;1.58;100.00;100371.72;4984767;28;20042;-73
2024/03/01 06:10:13;;;;;;;36.22;16.30;;;;;;;1.57;100.00;100378.81;4983644;28;19913;-72
2024/03/01 06:12:39;;;;;;;37.42;17.13;;;;;;;1.57;100.00;100375.38;4985378;28;20109;-73
2024/03/01 06:15:05;;;;;;;38.28;18.38;;;;;;;1.56;100.00;100394.88;4982178;28;20045;-74
2024/03/01 06:17:32;;;;;;;37.90;17.20;;;;;;;1.57;100.00;100383.28;4975612;28;20034;-73
2024/03/01 06:19:57;;;;;;;40.95;17.58;;;;;;;1.56;100.00;100389.59;4979042;28;20026;-73
2024/03/01 06:22:23;;;;;;;38.38;17.88;;;;;;;1.57;100.00;100393.84;4997935;28;20038;-73
2024/03/01 06:24:50;;;;;;;39.53;17.90;;;;;;;1.57;100.00;100389.38;4983227;28;20038;-73
2024/03/01 06:27:16;;;;;;;44.60;18.25;;;;;;;1.58;100.00;100382.25;5014084;28;20045;-73
2024/03/01 06:29:42;;;;;;;39.63;18.10;;;;;;;1.59;100.00;100379.41;4984654;28;20030;-73
2024/03/01 06:32:10;;;;;;;40.35;18.42;;;;;;;1.60;100.00;100375.72;4981991;28;20034;-73
2024/03/01 06:34:36;;;;;;;36.35;17.27;;;;;;;1.63;100.00;100374.50;4978723;28;20034;-72
2024/03/01 06:37:03;;;;;;;40.15;18.52;;;;;;;1.63;100.00;100371.88;4991938;28;20050;-72
2024/03/01 06:39:29;;;;;;;37.88;17.50;;;;;;;1.64;100.00;100381.38;4968253;28;20034;-72
2024/03/01 06:41:55;;;;;;;37.42;17.52;;;;;;;1.65;100.00;100380.34;4978326;28;20096;-72
2024/03/01 06:44:25;;;;;;;36.95;16.73;;;;;;;1.67;100.00;100383.56;4982428;28;20038;-72
2024/03/01 06:46:51;;;;;;;40.35;16.73;;;;;;;1.67;100.00;100391.50;4980240;28;20101;-72
2024/03/01 06:49:18;;;;;;;38.05;16.83;;;;;;;1.67;100.00;100377.50;4983019;28;20033;-72
2024/03/01 06:51:44;;;;;;;38.40;16.95;;;;;;;1.70;100.00;100396.34;4982196;28;20109;-72
2024/03/01 06:54:10;;;;;;;37.75;18.10;;;;;;;1.71;100.00;100397.97;4966570;28;20072;-72
2024/03/01 06:56:42;;;;;;;36.75;16.70;;;;;;;1.74;100.00;100404.63;4980486;28;20080;-71
2024/03/01 06:59:08;;;;;;;36.55;17.33;;;;;;;1.76;100.00;100403.41;4981551;28;20034;-72
2024/03/01 07:01:34;;;;;;;42.20;18.70;;;;;;;1.78;100.00;100409.25;4992580;28;20125;-72
2024/03/01 07:04:00;;;;;;;39.58;17.35;;;;;;;1.78;100.00;100405.81;4980980;28;20034;-72
2024/03/01 07:06:27;;;;;;;40.40;17.90;;;;;;;1.80;100.00;100403.75;4964317;28;20970;-72
2024/03/01 07:08:53;;;;;;;38.95;17.63;;;;;;;1.82;100.00;100407.78;4983861;28;20220;-74
2024/03/01 07:11:18;;;;;;;39.53;19.15;;;;;;;1.84;100.00;100418.16;4995773;28;20130;-72
2024/03/01 07:13:44;;;;;;;36.55;16.77;;;;;;;1.88;100.00;100411.38;4979389;28;20519;-72
2024/03/01 07:16:09;;;;;;;41.33;17.90;;;;;;;1.91;100.00;100411.75;4982341;28;20034;-72
2024/03/01 07:18:35;;;;;;;38.42;16.65;;;;;;;1.95;100.00;100424.50;4983678;28;20458;-72
2024/03/01 07:21:00;;;;;;;39.08;17.55;;;;;;;2.00;100.00;100414.09;4979185;28;20476;-72
2024/03/01 07:23:26;;;;;;;38.97;17.92;;;;;;;2.02;100.00;100414.66;4957703;28;20030;-72
2024/03/01 07:25:52;;;;;;;37.78;17.80;;;;;;;2.03;100.00;100411.84;4998072;28;20038;-71
2024/03/01 07:28:17;;;;;;;37.28;17.67;;;;;;;2.08;100.00;100411.94;4980128;28;21691;-72
2024/03/01 07:30:43;;;;;;;38.92;17.83;;;;;;;2.10;100.00;100417.00;5005948;28;20038;-72
2024/03/01 07:33:09;;;;;;;37.08;17.67;;;;;;;2.17;100.00;100415.13;4980270;28;20061;-72
2024/03/01 07:35:34;;;;;;;34.22;16.90;;;;;;;2.23;100.00;100411.56;4999990;28;20038;-72
2024/03/01 07:38:00;;;;;;;42.25;19.13;;;;;;;2.30;100.00;100417.56;4984586;28;20049;-70
2024/03/01 07:40:25;;;;;;;37.42;18.20;;;;;;;2.35;100.00;100425.66;4998697;28;20060;-71
2024/03/01 07:42:51;;;;;;;36.40;17.00;;;;;;;2.38;100.00;100422.56;4971312;28;20038;-71
2024/03/01 07:45:17;;;;;;;37.97;18.25;;;;;;;2.41;100.00;100416.03;4981905;28;20034;-70
2024/03/01 07:47:44;;;;;;;37.00;17.65;;;;;;;2.49;100.00;100414.91;5013557;28;20851;-71
2024/03/01 07:50:10;;;;;;;38.30;18.13;;;;;;;2.52;100.00;100417.13;4982563;28;20026;-72
2024/03/01 07:52:36;;;;;;;38.15;18.55;;;;;;;2.56;100.00;100411.13;4982900;28;20057;-70
2024/03/01 07:55:02;;;;;;;38.05;18.17;;;;;;;2.63;100.00;100411.84;4982328;28;20064;-71
2024/03/01 07:57:28;;;;;;;35.00;17.25;;;;;;;2.68;100.00;100416.47;4983770;28;20081;-72
2024/03/01 07:59:54;;;;;;;40.25;18.42;;;;;;;2.76;100.00;100410.84;4976447;28;20544;-72
2024/03/01 08:02:20;;;;;;;36.13;17.33;;;;;;;2.90;100.00;100417.56;4998634;28;20049;-72
2024/03/01 08:04:46;;;;;;;36.15;17.30;;;;;;;2.98;100.00;100419.91;4965087;28;20468;-72
2024/03/01 08:07:15;;;;;;;35.13;18.38;;;;;;;3.03;100.00;100426.31;4980331;28;20118;-73
2024/03/01 08:09:42;;;;;;;37.70;17.83;;;;;;;3.10;100.00;100417.25;4966863;28;20116;-72
2024/03/01 08:12:18;;;;;;;37.50;18.02;;;;;;;3.18;100.00;100422.19;5011126;28;20030;-73
2024/03/01 08:14:44;;;;;;;36.55;17.38;;;;;;;3.22;100.00;100417.28;4983114;28;20038;-73
2024/03/01 08:17:12;;;;;;;35.47;17.13;;;;;;;3.34;100.00;100426.03;4994544;28;20039;-73
2024/03/01 08:19:44;;;;;;;36.00;16.95;;;;;;;3.43;100.00;100422.00;4983363;28;20484;-73
2024/03/01 08:22:13;;;;;;;34.25;17.30;;;;;;;3.53;100.00;100416.94;4957338;28;20130;-73
2024/03/01 08:24:45;;;;;;;33.75;16.90;;;;;;;3.66;100.00;100412.41;4966346;28;20058;-73
2024/03/01 08:27:11;;;;;;;31.70;16.60;;;;;;;3.75;100.00;100403.09;4984730;28;20634;-72
2024/03/01 08:29:38;;;;;;;;;;;;;;;3.87;100.00;100411.84;4986068;28;20045;-71
2024/03/01 08:32:04;;;;;;;33.60;16.58;;;;;;;3.95;100.00;100408.84;4971173;28;19924;-71
2024/03/01 08:34:52;;;;;;;33.17;16.25;;;;;;;4.03;100.00;100408.47;5015906;28;20045;-72
2024/03/01 08:37:24;;;;;;;32.72;16.08;;;;;;;4.15;100.00;100408.44;4959989;28;20046;-71
2024/03/01 08:39:53;;;;;;;33.60;16.00;;;;;;;4.26;100.00;100404.94;4986000;28;20146;-71
2024/03/01 08:42:21;;;;;;;32.38;16.40;;;;;;;4.39;100.00;100409.16;4950493;28;20813;-70
2024/03/01 08:44:54;;;;;;;35.85;16.95;;;;;;;4.50;100.00;100413.59;4983340;28;20077;-73
2024/03/01 08:47:42;;;;;;;34.00;16.80;;;;;;;4.60;100.00;100408.47;4980475;28;20045;-72
2024/03/01 08:50:20;;;;;;;32.42;17.38;;;;;;;4.70;100.00;100415.03;4980799;28;20045;-73
2024/03/01 08:52:47;;;;;;;35.78;17.30;;;;;;;4.78;100.00;100423.38;5012904;28;20506;-72
2024/03/01 08:55:16;;;;;;;30.48;15.57;;;;;;;4.86;100.00;100404.41;4983599;28;20034;-72
2024/03/01 08:57:41;;;;;;;30.83;16.67;;;;;;;4.96;100.00;100409.09;4985731;28;20173;-72
2024/03/01 09:00:25;;;;;;;31.27;16.25;;;;;;;5.07;100.00;100405.56;4984015;28;20117;-72
2024/03/01 09:02:52;;;;;;;29.67;15.88;;;;;;;5.15;100.00;100402.53;4984918;28;20038;-72
2024/03/01 09:05:18;;;;;;;30.67;15.75;;;;;;;5.27;100.00;100409.56;5014595;28;20496;-72
2024/03/01 09:07:44;;;;;;;29.30;15.90;;;;;;;5.42;100.00;100415.13;4981409;28;20034;-73
2024/03/01 09:10:36;;;;;;;35.03;16.50;;;;;;;5.53;100.00;100398.28;4983067;28;20037;-72
2024/03/01 09:13:04;;;;;;;29.80;15.07;;;;;;;5.63;100.00;100398.44;4975991;28;20039;-72
2024/03/01 09:15:37;;;;;;;31.08;15.48;;;;;;;5.73;100.00;100401.22;4983743;28;20034;-73
2024/03/01 09:18:07;;;;;;;28.48;15.05;;;;;;;5.81;100.00;100399.19;4968037;28;20038;-73
2024/03/01 09:20:39;;;;;;;30.58;16.00;;;;;;;5.89;100.00;100391.63;4976960;28;20479;-74
2024/03/01 09:23:11;;;;;;;30.25;15.70;;;;;;;5.97;100.00;100377.91;4983510;28;20122;-72
2024/03/01 09:25:43;;;;;;;29.15;15.48;;;;;;;6.09;100.00;100383.09;4984464;28;20661;-72
2024/03/01 09:28:09;;;;;;;32.63;16.23;;;;;;;6.16;100.00;100396.97;4983453;28;20042;-73
2024/03/01 09:30:35;;;;;;;26.98;14.13;;;;;;;6.19;100.00;100385.88;4983967;28;20116;-71
2024/03/01 09:33:01;;;;;;;28.73;14.57;;;;;;;6.23;100.00;100376.34;5000649;28;20077;-73
2024/03/01 09:35:26;;;;;;;30.83;16.10;;;;;;;6.34;100.00;100379.09;4984066;28;20500;-72
2024/03/01 09:37:53;;;;;;;28.02;14.88;;;;;;;6.40;100.00;100373.59;5016516;28;20125;-72
2024/03/01 09:40:53;;;;;;;29.02;15.70;;;;;;;6.51;100.00;100371.84;5017386;28;20039;-72
2024/03/01 09:43:39;;;;;;;26.52;14.65;;;;;;;6.62;100.00;100367.41;4998493;28;20045;-72
2024/03/01 09:46:34;;;;;;;29.08;15.20;;;;;;;6.81;100.00;100374.78;5005280;28;20050;-72
2024/03/01 09:49:16;;;;;;;27.90;14.55;;;;;;;6.98;100.00;100360.53;4967732;28;20615;-72
2024/03/01 09:51:51;;;;;;;26.70;14.98;;;;;;;7.12;100.00;100372.38;4982373;28;20023;-72
2024/03/01 09:54:40;;;;;;;27.25;13.88;;;;;;;7.19;100.00;100372.94;4965113;28;20046;-72
2024/03/01 09:57:13;;;;;;;27.88;14.13;;;;;;;7.31;100.00;100376.19;4978967;28;20096;-72
2024/03/01 09:59:58;;;;;;;23.73;12.82;;;;;;;7.39;100.00;100378.41;4970893;28;20085;-73
2024/03/01 10:02:41;;;;;;;27.73;14.63;;;;;;;7.58;100.00;100370.75;4982050;28;20038;-71
2024/03/01 10:05:22;;;;;;;31.35;15.18;;;;;;;7.57;100.00;100369.16;4981499;28;20048;-72
2024/03/01 10:07:56;;;;;;;27.23;15.05;;;;;;;7.63;100.00;100365.47;4984177;28;20038;-72
2024/03/01 10:10:38;;;;;;;25.73;14.10;;;;;;;7.72;100.00;100370.31;5015956;28;20048;-72
2024/03/01 10:13:24;;;;;;;28.08;14.48;;;;;;;7.81;100.00;100374.09;4983823;28;20030;-73
2024/03/01 10:16:22;;;;;;;24.25;12.80;;;;;;;7.87;100.00;100373.06;4966983;28;20443;-72
2024/03/01 10:19:18;;;;;;;25.85;13.77;;;;;;;8.01;100.00;100374.19;4979997;28;20034;-72
2024/03/01 10:22:00;;;;;;;24.25;13.30;;;;;;;8.18;100.00;100384.63;4984676;28;20038;-74
2024/03/01 10:24:50;;;;;;;24.40;13.65;;;;;;;8.32;100.00;100383.06;4977188;28;20041;-72
2024/03/01 10:27:27;;;;;;;27.55;13.15;;;;;;;8.31;100.00;100367.31;4982024;28;20046;-72
2024/03/01 10:30:10;;;;;;;26.08;13.48;;;;;;;8.47;100.00;100372.47;5013574;28;20510;-72
2024/03/01 10:33:15;;;;;;;23.95;12.82;;;;;;;8.56;100.00;100370.06;4998261;28;20027;-72
2024/03/01 10:36:02;;;;;;;24.70;14.35;;;;;;;8.58;100.00;100367.13;4979193;28;20073;-72
2024/03/01 10:39:07;;;;;;;26.25;13.82;;;;;;;8.67;100.00;100376.22;4978204;28;20108;-72
2024/03/01 10:41:47;;;;;;;27.88;13.70;;;;;;;8.74;100.00;100374.13;4981692;28;20125;-72
2024/03/01 10:44:56;;;;;;;25.90;13.35;;;;;;;8.87;100.00;100376.22;4999631;28;20038;-73
2024/03/01 10:47:23;;;;;;;22.85;12.80;;;;;;;9.05;100.00;100377.56;4977752;28;20629;-72
2024/03/01 10:50:13;;;;;;;24.02;12.77;;;;;;;9.23;100.00;100373.56;4988909;28;20117;-72
2024/03/01 10:52:38;;;;;;;;;;;;;;;9.36;100.00;100374.88;5014198;28;20043;-72
2024/03/01 10:55:18;;;;;;;23.88;13.68;;;;;;;9.55;100.00;100392.75;4999319;28;19923;-72
2024/03/01 10:58:09;;;;;;;22.30;12.98;;;;;;;9.63;100.00;100393.28;4981819;28;20045;-73
2024/03/01 11:00:45;;;;;;;24.23;13.15;;;;;;;9.65;100.00;100391.13;4994116;28;20476;-72
2024/03/01 11:03:23;;;;;;;23.35;12.98;;;;;;;9.65;100.00;100391.13;4979467;28;20034;-72
2024/03/01 11:06:10;;;;;;;21.95;11.77;;;;;;;9.72;100.00;100391.63;4978955;28;20046;-72
2024/03/01 11:08:44;;;;;;;21.10;12.15;;;;;;;9.78;100.00;100390.53;4983682;28;20121;-71
2024/03/01 11:11:36;;;;;;;21.67;12.65;;;;;;;9.83;100.00;100383.31;5009787;28;20153;-72
2024/03/01 11:14:04;;;;;;;23.08;13.18;;;;;;;9.93;100.00;100387.81;4986737;28;20053;-73
2024/03/01 11:16:33;;;;;;;22.52;12.73;;;;;;;10.06;100.00;100387.22;4989558;28;20050;-73
2024/03/01 11:19:06;;;;;;;21.27;11.75;;;;;;;10.16;100.00;100389.06;4995199;28;20062;-73
2024/03/01 11:21:35;;;;;;;20.92;11.95;;;;;;;10.28;100.00;100394.91;5012513;28;20038;-73